Emmalena, KY (41740)

5:59 AM EDT on October 31, 2014 (GMT -0400)
KKYJACKS3 | Change Station
CLOSE
Current Station
Personal Weather Station
Location: Talbert, KY
Elevation: 994 ft
Nearby Weather Stations
Active Advisory: Freeze Watch, Special Statement

Elev 994 ft 37.41 °N, 83.42 °W | Updated 3 minutes ago

Overcast
Overcast
37.0 °F
Feels Like 37 °F
N
0.0
Wind Variable Wind from North
Gusts 0.0 mph

Today
High -- | Low -- °F
--% Chance of Precip.
Yesterday
High -- | Low -- °F
Precip. -- in
7:55 AM 6:35 PM
First Quarter, 53% visible
Pressure 29.99 in
Visibility 10.0 miles
Clouds Overcast 5500 ft
Windchill 37 °F
Dew Point 35 °F
Humidity 94%
Rainfall 0.00 in
Snow Depth Not available.
UV 0 out of 12
Pollen .30 out of 12
Air Quality Not available.
Flu Activity Not available.
METAR KJKL 310953Z AUTO 00000KT 10SM OVC055 05/01 A2998 RMK AO2 SLP153 T00500006

More Conditions Fewer Conditions

Pressure 29.99 in
Visibility 10.0 miles
Clouds Overcast 5500 ft
Windchill 37 °F
Dew Point 35 °F
Humidity 94%
Rainfall 0.00 in
Snow Depth Not available.
UV 0 out of 12
Pollen .30 out of 12
Air Quality Not available.
Flu Activity Not available.
METAR KJKL 310953Z AUTO 00000KT 10SM OVC055 05/01 A2998 RMK AO2 SLP153 T00500006

More Conditions Fewer Conditions

10-Day Weather Forecast

Almanac

Astronomy

Oct. 31, 2014 Rise Set
Actual Time
Civil Twilight
Nautical Twilight
Astronomical Twilight
Moon
Length of Visible Light
Length of Day
Tomorrow will be .
, % of the Moon is Illuminated

Today's Extremes

State Highs State Lows

Community

WunderPhotos

Upload Photos

1,766,577 photos uploaded!

WunderBlogs® & News

Nearby

Air Quality

  Air Quality AQ Index Pollutant
Not available.

Snow Depth

Station Depth Elevation

Earthquake Activity

City Distance Mag. Time & Date
Minimum magnitude displayed is 2.5.

Coastal Water Temperatures

Place Temperature

Nearby Weather Stations